PWSweather.com
Personal Weather Stations
Station Observations
IONTARIO88
Lincoln, ON L0R

Lincoln, ON L0R

Lat: 43.1763563, Lon: -79.4719525

Elevation: 297

Station Type: Davis Vantage Pro 2 Plus

http://www.beamsvillewx.ca

High Low Average
Temperature 26.4°F-3.1°C 16.5°F-8.6°C 20.6°F-6.3°C
Dew Point 17.0°F-8.3°C 9.7°F-12.4°C 13.8°F-10.1°C
Winds 9.0 mph 14.5 kmh Calm Calm 4.0 mph WSW6.4 kmh WSW
Wind Gusts 17.0 mph27.4 kmh -- 9.0 mph14.5 kmh
Humidity 87% 61% 75%
Pressure 30.49 in1032.5 mb 30.17 in1021.7 mb -
Precipitation 0.04 in1.0 mm - -
Hour Temp Dew Point Humidity Winds Wind Gusts Pressure Precip Precip Rate Daily Precip Total
12:00 AM 21.0°F-6.1°C 14.0°F-10.0°C 74% 5.0 mph SW8.0 kmh SW 11.0 mph17.7 kmh 30.19 in1022.4 mb 0.00 in0.0 mm 0.00 in0.0 mm 0.01 in0.3 mm
12:15 AM 21.2°F-6.0°C 14.8°F-9.6°C 76% 4.0 mph WSW6.4 kmh WSW 12.0 mph19.3 kmh 30.19 in1022.4 mb 0.00 in0.0 mm 0.00 in0.0 mm 0.01 in0.3 mm
12:30 AM 21.4°F-5.9°C 15.3°F-9.3°C 77% 6.0 mph WSW9.7 kmh WSW 14.0 mph22.5 kmh 30.19 in1022.4 mb 0.00 in0.0 mm 0.00 in0.0 mm 0.01 in0.3 mm
12:45 AM 21.6°F-5.8°C 15.5°F-9.2°C 77% 5.0 mph SW8.0 kmh SW 13.0 mph20.9 kmh 30.19 in1022.4 mb 0.00 in0.0 mm 0.00 in0.0 mm 0.01 in0.3 mm
01:00 AM 21.6°F-5.8°C 15.5°F-9.2°C 77% 6.0 mph WSW9.7 kmh WSW 13.0 mph20.9 kmh 30.18 in1022.0 mb 0.00 in0.0 mm 0.00 in0.0 mm 0.00 in0.0 mm
01:15 AM 21.4°F-5.9°C 15.9°F-8.9°C 79% 5.0 mph SW8.0 kmh SW 12.0 mph19.3 kmh 30.18 in1022.0 mb 0.00 in0.0 mm 0.00 in0.0 mm 0.00 in0.0 mm
01:30 AM 21.0°F-6.1°C 16.1°F-8.8°C 81% 5.0 mph SW8.0 kmh SW 11.0 mph17.7 kmh 30.18 in1022.0 mb 0.00 in0.0 mm 0.00 in0.0 mm 0.00 in0.0 mm
01:45 AM 21.0°F-6.1°C 16.4°F-8.7°C 82% 5.0 mph WSW8.0 kmh WSW 11.0 mph17.7 kmh 30.18 in1022.0 mb 0.00 in0.0 mm 0.00 in0.0 mm 0.00 in0.0 mm
02:00 AM 20.8°F-6.2°C 16.5°F-8.6°C 83% 4.0 mph SW6.4 kmh SW 9.0 mph14.5 kmh 30.18 in1022.0 mb 0.00 in0.0 mm 0.00 in0.0 mm 0.00 in0.0 mm
02:15 AM 20.7°F-6.3°C 16.6°F-8.6°C 84% 4.0 mph SW6.4 kmh SW 11.0 mph17.7 kmh 30.17 in1021.7 mb 0.00 in0.0 mm 0.00 in0.0 mm 0.00 in0.0 mm
02:30 AM 20.5°F-6.4°C 16.4°F-8.7°C 84% 4.0 mph SW6.4 kmh SW 9.0 mph14.5 kmh 30.17 in1021.7 mb 0.00 in0.0 mm 0.00 in0.0 mm 0.00 in0.0 mm
02:45 AM 20.5°F-6.4°C 16.7°F-8.5°C 85% 3.0 mph WSW4.8 kmh WSW 8.0 mph12.9 kmh 30.17 in1021.7 mb 0.00 in0.0 mm 0.00 in0.0 mm 0.00 in0.0 mm
03:00 AM 20.5°F-6.4°C 16.7°F-8.5°C 85% 2.0 mph SW3.2 kmh SW 6.0 mph9.7 kmh 30.17 in1021.7 mb 0.00 in0.0 mm 0.00 in0.0 mm 0.00 in0.0 mm
03:15 AM 20.5°F-6.4°C 17.0°F-8.3°C 86% 2.0 mph SW3.2 kmh SW 6.0 mph9.7 kmh 30.17 in1021.7 mb 0.01 in0.3 mm 0.04 in1.0 mm 0.01 in0.3 mm
03:30 AM 20.5°F-6.4°C 17.0°F-8.3°C 86% 3.0 mph SW4.8 kmh SW 7.0 mph11.3 kmh 30.17 in1021.7 mb 0.01 in0.3 mm 0.00 in0.0 mm 0.01 in0.3 mm
03:45 AM 20.5°F-6.4°C 16.7°F-8.5°C 85% 3.0 mph WSW4.8 kmh WSW 8.0 mph12.9 kmh 30.18 in1022.0 mb 0.01 in0.3 mm 0.00 in0.0 mm 0.01 in0.3 mm
04:00 AM 20.5°F-6.4°C 16.7°F-8.5°C 85% 4.0 mph SW6.4 kmh SW 10.0 mph16.1 kmh 30.18 in1022.0 mb 0.01 in0.3 mm 0.00 in0.0 mm 0.01 in0.3 mm
04:15 AM 20.3°F-6.5°C 16.8°F-8.4°C 86% 4.0 mph SW6.4 kmh SW 10.0 mph16.1 kmh 30.18 in1022.0 mb 0.00 in0.0 mm 0.00 in0.0 mm 0.01 in0.3 mm
04:30 AM 19.9°F-6.7°C 16.4°F-8.7°C 86% 5.0 mph WSW8.0 kmh WSW 13.0 mph20.9 kmh 30.18 in1022.0 mb 0.00 in0.0 mm 0.00 in0.0 mm 0.01 in0.3 mm
04:45 AM 19.8°F-6.8°C 16.3°F-8.7°C 86% 4.0 mph WSW6.4 kmh WSW 9.0 mph14.5 kmh 30.18 in1022.0 mb 0.00 in0.0 mm 0.00 in0.0 mm 0.01 in0.3 mm
05:00 AM 19.8°F-6.8°C 16.3°F-8.7°C 86% 5.0 mph WSW8.0 kmh WSW 9.0 mph14.5 kmh 30.19 in1022.4 mb 0.01 in0.3 mm 0.01 in0.3 mm 0.02 in0.5 mm
05:15 AM 19.6°F-6.9°C 15.8°F-9.0°C 85% 4.0 mph WSW6.4 kmh WSW 10.0 mph16.1 kmh 30.19 in1022.4 mb 0.01 in0.3 mm 0.00 in0.0 mm 0.02 in0.5 mm
05:30 AM 19.6°F-6.9°C 16.1°F-8.8°C 86% 4.0 mph W6.4 kmh W 8.0 mph12.9 kmh 30.20 in1022.7 mb 0.01 in0.3 mm 0.00 in0.0 mm 0.02 in0.5 mm
05:45 AM 19.2°F-7.1°C 16.0°F-8.9°C 87% 3.0 mph W4.8 kmh W 9.0 mph14.5 kmh 30.20 in1022.7 mb 0.02 in0.5 mm 0.04 in1.0 mm 0.02 in0.5 mm
06:00 AM 19.2°F-7.1°C 16.0°F-8.9°C 87% 4.0 mph W6.4 kmh W 8.0 mph12.9 kmh 30.21 in1023.0 mb 0.01 in0.3 mm 0.00 in0.0 mm 0.02 in0.5 mm
06:15 AM 19.2°F-7.1°C 15.7°F-9.1°C 86% 5.0 mph WNW8.0 kmh WNW 8.0 mph12.9 kmh 30.21 in1023.0 mb 0.01 in0.3 mm 0.00 in0.0 mm 0.02 in0.5 mm
06:30 AM 19.0°F-7.2°C 15.5°F-9.2°C 86% 4.0 mph W6.4 kmh W 8.0 mph12.9 kmh 30.21 in1023.0 mb 0.02 in0.5 mm 0.04 in1.0 mm 0.03 in0.8 mm
06:45 AM 18.9°F-7.3°C 15.1°F-9.4°C 85% 4.0 mph W6.4 kmh W 8.0 mph12.9 kmh 30.21 in1023.0 mb 0.01 in0.3 mm 0.00 in0.0 mm 0.03 in0.8 mm
07:00 AM 18.9°F-7.3°C 14.8°F-9.6°C 84% 3.0 mph W4.8 kmh W 7.0 mph11.3 kmh 30.23 in1023.7 mb 0.01 in0.3 mm 0.00 in0.0 mm 0.03 in0.8 mm
07:15 AM 18.7°F-7.4°C 14.6°F-9.7°C 84% 4.0 mph W6.4 kmh W 8.0 mph12.9 kmh 30.23 in1023.7 mb 0.00 in0.0 mm 0.00 in0.0 mm 0.03 in0.8 mm
07:30 AM 18.7°F-7.4°C 14.1°F-9.9°C 82% 4.0 mph W6.4 kmh W 8.0 mph12.9 kmh 30.24 in1024.0 mb 0.00 in0.0 mm 0.00 in0.0 mm 0.03 in0.8 mm
07:45 AM 18.3°F-7.6°C 13.5°F-10.3°C 81% 3.0 mph W4.8 kmh W 7.0 mph11.3 kmh 30.24 in1024.0 mb 0.01 in0.3 mm 0.04 in1.0 mm 0.04 in1.0 mm
08:00 AM 18.3°F-7.6°C 13.2°F-10.4°C 80% 5.0 mph W8.0 kmh W 9.0 mph14.5 kmh 30.25 in1024.4 mb 0.01 in0.3 mm 0.00 in0.0 mm 0.04 in1.0 mm
08:15 AM 18.1°F-7.7°C 13.0°F-10.6°C 80% 5.0 mph W8.0 kmh W 11.0 mph17.7 kmh 30.26 in1024.7 mb 0.01 in0.3 mm 0.00 in0.0 mm 0.04 in1.0 mm
08:30 AM 18.1°F-7.7°C 13.0°F-10.6°C 80% 5.0 mph WSW8.0 kmh WSW 11.0 mph17.7 kmh 30.26 in1024.7 mb 0.01 in0.3 mm 0.00 in0.0 mm 0.04 in1.0 mm
08:45 AM 18.3°F-7.6°C 13.2°F-10.4°C 80% 4.0 mph WSW6.4 kmh WSW 10.0 mph16.1 kmh 30.27 in1025.1 mb 0.00 in0.0 mm 0.00 in0.0 mm 0.04 in1.0 mm
09:00 AM 18.3°F-7.6°C 13.2°F-10.4°C 80% 5.0 mph WSW8.0 kmh WSW 10.0 mph16.1 kmh 30.28 in1025.4 mb 0.00 in0.0 mm 0.00 in0.0 mm 0.04 in1.0 mm
09:15 AM 18.5°F-7.5°C 13.4°F-10.3°C 80% 5.0 mph WSW8.0 kmh WSW 9.0 mph14.5 kmh 30.29 in1025.7 mb 0.00 in0.0 mm 0.00 in0.0 mm 0.04 in1.0 mm
09:30 AM 18.7°F-7.4°C 13.2°F-10.4°C 79% 6.0 mph WSW9.7 kmh WSW 13.0 mph20.9 kmh 30.29 in1025.7 mb 0.00 in0.0 mm 0.00 in0.0 mm 0.04 in1.0 mm
09:45 AM 18.9°F-7.3°C 13.4°F-10.3°C 79% 6.0 mph WSW9.7 kmh WSW 12.0 mph19.3 kmh 30.29 in1025.7 mb 0.00 in0.0 mm 0.00 in0.0 mm 0.04 in1.0 mm
10:00 AM 19.0°F-7.2°C 13.6°F-10.2°C 79% 5.0 mph WSW8.0 kmh WSW 12.0 mph19.3 kmh 30.30 in1026.1 mb 0.00 in0.0 mm 0.00 in0.0 mm 0.04 in1.0 mm
10:15 AM 19.2°F-7.1°C 13.8°F-10.1°C 79% 5.0 mph WSW8.0 kmh WSW 12.0 mph19.3 kmh 30.31 in1026.4 mb 0.00 in0.0 mm 0.00 in0.0 mm 0.04 in1.0 mm
10:30 AM 19.2°F-7.1°C 13.5°F-10.3°C 78% 6.0 mph WSW9.7 kmh WSW 12.0 mph19.3 kmh 30.32 in1026.8 mb 0.00 in0.0 mm 0.00 in0.0 mm 0.04 in1.0 mm
10:45 AM 19.6°F-6.9°C 13.5°F-10.3°C 77% 6.0 mph WSW9.7 kmh WSW 12.0 mph19.3 kmh 30.32 in1026.8 mb 0.00 in0.0 mm 0.00 in0.0 mm 0.04 in1.0 mm
11:00 AM 20.5°F-6.4°C 13.8°F-10.1°C 75% 7.0 mph WSW11.3 kmh WSW 12.0 mph19.3 kmh 30.32 in1026.8 mb 0.00 in0.0 mm 0.00 in0.0 mm 0.04 in1.0 mm
11:15 AM 21.2°F-6.0°C 14.2°F-9.9°C 74% 6.0 mph WSW9.7 kmh WSW 12.0 mph19.3 kmh 30.34 in1027.4 mb 0.00 in0.0 mm 0.00 in0.0 mm 0.04 in1.0 mm
11:30 AM 21.7°F-5.7°C 14.4°F-9.8°C 73% 6.0 mph WSW9.7 kmh WSW 13.0 mph20.9 kmh 30.34 in1027.4 mb 0.00 in0.0 mm 0.00 in0.0 mm 0.04 in1.0 mm
11:45 AM 22.5°F-5.3°C 15.4°F-9.2°C 74% 6.0 mph WSW9.7 kmh WSW 13.0 mph20.9 kmh 30.35 in1027.8 mb 0.00 in0.0 mm 0.00 in0.0 mm 0.04 in1.0 mm
12:00 PM 23.0°F-5.0°C 15.0°F-9.4°C 71% 7.0 mph W11.3 kmh W 14.0 mph22.5 kmh 30.36 in1028.1 mb 0.00 in0.0 mm 0.00 in0.0 mm 0.04 in1.0 mm
12:15 PM 23.5°F-4.7°C 15.5°F-9.2°C 71% 6.0 mph W9.7 kmh W 11.0 mph17.7 kmh 30.37 in1028.4 mb 0.00 in0.0 mm 0.00 in0.0 mm 0.04 in1.0 mm
12:30 PM 23.2°F-4.9°C 15.2°F-9.3°C 71% 7.0 mph WSW11.3 kmh WSW 15.0 mph24.1 kmh 30.38 in1028.8 mb 0.00 in0.0 mm 0.00 in0.0 mm 0.04 in1.0 mm
12:45 PM 23.0°F-5.0°C 15.0°F-9.4°C 71% 8.0 mph WSW12.9 kmh WSW 14.0 mph22.5 kmh 30.38 in1028.8 mb 0.00 in0.0 mm 0.00 in0.0 mm 0.04 in1.0 mm
01:00 PM 23.7°F-4.6°C 15.7°F-9.1°C 71% 7.0 mph WSW11.3 kmh WSW 17.0 mph27.4 kmh 30.37 in1028.4 mb 0.00 in0.0 mm 0.00 in0.0 mm 0.04 in1.0 mm
01:15 PM 24.1°F-4.4°C 15.7°F-9.1°C 70% 7.0 mph WSW11.3 kmh WSW 16.0 mph25.7 kmh 30.37 in1028.4 mb 0.00 in0.0 mm 0.00 in0.0 mm 0.04 in1.0 mm
01:30 PM 24.1°F-4.4°C 15.4°F-9.2°C 69% 9.0 mph WSW14.5 kmh WSW 16.0 mph25.7 kmh 30.37 in1028.4 mb 0.00 in0.0 mm 0.00 in0.0 mm 0.04 in1.0 mm
01:45 PM 24.3°F-4.3°C 15.5°F-9.2°C 69% 8.0 mph WSW12.9 kmh WSW 16.0 mph25.7 kmh 30.37 in1028.4 mb 0.00 in0.0 mm 0.00 in0.0 mm 0.04 in1.0 mm
02:00 PM 25.0°F-3.9°C 16.2°F-8.8°C 69% 7.0 mph WSW11.3 kmh WSW 16.0 mph25.7 kmh 30.38 in1028.8 mb 0.00 in0.0 mm 0.00 in0.0 mm 0.04 in1.0 mm
02:15 PM 25.2°F-3.8°C 16.1°F-8.8°C 68% 6.0 mph WSW9.7 kmh WSW 16.0 mph25.7 kmh 30.37 in1028.4 mb 0.00 in0.0 mm 0.00 in0.0 mm 0.04 in1.0 mm
02:30 PM 25.5°F-3.6°C 16.1°F-8.8°C 67% 7.0 mph WSW11.3 kmh WSW 14.0 mph22.5 kmh 30.37 in1028.4 mb 0.00 in0.0 mm 0.00 in0.0 mm 0.04 in1.0 mm
02:45 PM 25.9°F-3.4°C 16.4°F-8.7°C 67% 7.0 mph WSW11.3 kmh WSW 12.0 mph19.3 kmh 30.37 in1028.4 mb 0.00 in0.0 mm 0.00 in0.0 mm 0.04 in1.0 mm
03:00 PM 25.2°F-3.8°C 15.4°F-9.2°C 66% 8.0 mph W12.9 kmh W 14.0 mph22.5 kmh 30.38 in1028.8 mb 0.00 in0.0 mm 0.00 in0.0 mm 0.04 in1.0 mm
03:15 PM 25.5°F-3.6°C 15.4°F-9.2°C 65% 7.0 mph W11.3 kmh W 14.0 mph22.5 kmh 30.38 in1028.8 mb 0.00 in0.0 mm 0.00 in0.0 mm 0.04 in1.0 mm
03:30 PM 26.2°F-3.2°C 15.3°F-9.3°C 63% 6.0 mph W9.7 kmh W 15.0 mph24.1 kmh 30.38 in1028.8 mb 0.00 in0.0 mm 0.00 in0.0 mm 0.04 in1.0 mm
03:45 PM 26.4°F-3.1°C 15.5°F-9.2°C 63% 7.0 mph W11.3 kmh W 13.0 mph20.9 kmh 30.39 in1029.1 mb 0.00 in0.0 mm 0.00 in0.0 mm 0.04 in1.0 mm
04:00 PM 26.1°F-3.3°C 14.4°F-9.8°C 61% 9.0 mph W14.5 kmh W 16.0 mph25.7 kmh 30.40 in1029.5 mb 0.00 in0.0 mm 0.00 in0.0 mm 0.04 in1.0 mm
04:15 PM 25.7°F-3.5°C 14.8°F-9.6°C 63% 7.0 mph WNW11.3 kmh WNW 13.0 mph20.9 kmh 30.40 in1029.5 mb 0.00 in0.0 mm 0.00 in0.0 mm 0.04 in1.0 mm
04:30 PM 25.0°F-3.9°C 14.5°F-9.7°C 64% 8.0 mph W12.9 kmh W 13.0 mph20.9 kmh 30.41 in1029.8 mb 0.00 in0.0 mm 0.00 in0.0 mm 0.04 in1.0 mm
04:45 PM 25.0°F-3.9°C 14.2°F-9.9°C 63% 7.0 mph WSW11.3 kmh WSW 12.0 mph19.3 kmh 30.41 in1029.8 mb 0.00 in0.0 mm 0.00 in0.0 mm 0.04 in1.0 mm
05:00 PM 24.8°F-4.0°C 13.6°F-10.2°C 62% 6.0 mph W9.7 kmh W 13.0 mph20.9 kmh 30.41 in1029.8 mb 0.00 in0.0 mm 0.00 in0.0 mm 0.04 in1.0 mm
05:15 PM 25.0°F-3.9°C 14.2°F-9.9°C 63% 5.0 mph WSW8.0 kmh WSW 11.0 mph17.7 kmh 30.41 in1029.8 mb 0.00 in0.0 mm 0.00 in0.0 mm 0.04 in1.0 mm
05:30 PM 25.0°F-3.9°C 14.2°F-9.9°C 63% 5.0 mph WSW8.0 kmh WSW 11.0 mph17.7 kmh 30.42 in1030.1 mb 0.00 in0.0 mm 0.00 in0.0 mm 0.04 in1.0 mm
05:45 PM 24.6°F-4.1°C 13.8°F-10.1°C 63% 5.0 mph WSW8.0 kmh WSW 10.0 mph16.1 kmh 30.43 in1030.5 mb 0.00 in0.0 mm 0.00 in0.0 mm 0.04 in1.0 mm
06:00 PM 23.5°F-4.7°C 13.1°F-10.5°C 64% 5.0 mph WSW8.0 kmh WSW 11.0 mph17.7 kmh 30.43 in1030.5 mb 0.00 in0.0 mm 0.00 in0.0 mm 0.04 in1.0 mm
06:15 PM 22.6°F-5.2°C 12.6°F-10.8°C 65% 4.0 mph WSW6.4 kmh WSW 9.0 mph14.5 kmh 30.43 in1030.5 mb 0.00 in0.0 mm 0.00 in0.0 mm 0.04 in1.0 mm
06:30 PM 21.9°F-5.6°C 12.3°F-10.9°C 66% 2.0 mph WSW3.2 kmh WSW 4.0 mph6.4 kmh 30.45 in1031.2 mb 0.00 in0.0 mm 0.00 in0.0 mm 0.04 in1.0 mm
06:45 PM 21.4°F-5.9°C 12.5°F-10.8°C 68% 3.0 mph WSW4.8 kmh WSW 7.0 mph11.3 kmh 30.45 in1031.2 mb 0.00 in0.0 mm 0.00 in0.0 mm 0.04 in1.0 mm
07:00 PM 20.5°F-6.4°C 11.6°F-11.3°C 68% 2.0 mph WSW3.2 kmh WSW 5.0 mph8.0 kmh 30.46 in1031.5 mb 0.00 in0.0 mm 0.00 in0.0 mm 0.04 in1.0 mm
07:15 PM 19.9°F-6.7°C 11.4°F-11.4°C 69% 2.0 mph WSW3.2 kmh WSW 8.0 mph12.9 kmh 30.46 in1031.5 mb 0.00 in0.0 mm 0.00 in0.0 mm 0.04 in1.0 mm
07:30 PM 19.6°F-6.9°C 11.4°F-11.4°C 70% 3.0 mph WSW4.8 kmh WSW 6.0 mph9.7 kmh 30.46 in1031.5 mb 0.00 in0.0 mm 0.00 in0.0 mm 0.04 in1.0 mm
07:45 PM 19.0°F-7.2°C 10.9°F-11.7°C 70% 3.0 mph WSW4.8 kmh WSW 7.0 mph11.3 kmh 30.48 in1032.2 mb 0.00 in0.0 mm 0.00 in0.0 mm 0.04 in1.0 mm
08:00 PM 18.7°F-7.4°C 10.8°F-11.8°C 71% 3.0 mph WSW4.8 kmh WSW 6.0 mph9.7 kmh 30.48 in1032.2 mb 0.00 in0.0 mm 0.00 in0.0 mm 0.04 in1.0 mm
08:15 PM 18.5°F-7.5°C 10.3°F-12.1°C 70% 3.0 mph WSW4.8 kmh WSW 8.0 mph12.9 kmh 30.49 in1032.5 mb 0.00 in0.0 mm 0.00 in0.0 mm 0.04 in1.0 mm
08:30 PM 18.3°F-7.6°C 10.2°F-12.1°C 70% 3.0 mph WSW4.8 kmh WSW 6.0 mph9.7 kmh 30.49 in1032.5 mb 0.00 in0.0 mm 0.00 in0.0 mm 0.04 in1.0 mm
08:45 PM 18.3°F-7.6°C 10.8°F-11.8°C 72% 2.0 mph WSW3.2 kmh WSW 5.0 mph8.0 kmh 30.49 in1032.5 mb 0.00 in0.0 mm 0.00 in0.0 mm 0.04 in1.0 mm
09:00 PM 18.0°F-7.8°C 10.5°F-11.9°C 72% 2.0 mph WSW3.2 kmh WSW 4.0 mph6.4 kmh 30.49 in1032.5 mb 0.00 in0.0 mm 0.00 in0.0 mm 0.04 in1.0 mm
09:15 PM 17.8°F-7.9°C 10.3°F-12.1°C 72% 1.0 mph WSW1.6 kmh WSW 4.0 mph6.4 kmh 30.49 in1032.5 mb 0.00 in0.0 mm 0.00 in0.0 mm 0.04 in1.0 mm
09:30 PM 17.6°F-8.0°C 10.4°F-12.0°C 73% Calm Calm 1.0 mph1.6 kmh 30.48 in1032.2 mb 0.00 in0.0 mm 0.00 in0.0 mm 0.04 in1.0 mm
09:45 PM 17.6°F-8.0°C 10.4°F-12.0°C 73% Calm Calm -- 30.48 in1032.2 mb 0.00 in0.0 mm 0.00 in0.0 mm 0.04 in1.0 mm
10:00 PM 17.4°F-8.1°C 10.5°F-11.9°C 74% 1.0 mph WSW1.6 kmh WSW 3.0 mph4.8 kmh 30.48 in1032.2 mb 0.00 in0.0 mm 0.00 in0.0 mm 0.04 in1.0 mm
10:15 PM 17.2°F-8.2°C 10.1°F-12.2°C 73% 1.0 mph WSW1.6 kmh WSW 3.0 mph4.8 kmh 30.48 in1032.2 mb 0.00 in0.0 mm 0.00 in0.0 mm 0.04 in1.0 mm
10:30 PM 17.1°F-8.3°C 10.2°F-12.1°C 74% 1.0 mph WSW1.6 kmh WSW 4.0 mph6.4 kmh 30.48 in1032.2 mb 0.00 in0.0 mm 0.00 in0.0 mm 0.04 in1.0 mm
10:45 PM 16.9°F-8.4°C 9.7°F-12.4°C 73% 2.0 mph WSW3.2 kmh WSW 4.0 mph6.4 kmh 30.49 in1032.5 mb 0.00 in0.0 mm 0.00 in0.0 mm 0.04 in1.0 mm
11:00 PM 16.7°F-8.5°C 9.8°F-12.3°C 74% 2.0 mph WSW3.2 kmh WSW 5.0 mph8.0 kmh 30.49 in1032.5 mb 0.00 in0.0 mm 0.00 in0.0 mm 0.04 in1.0 mm
11:15 PM 16.9°F-8.4°C 10.0°F-12.2°C 74% 2.0 mph WSW3.2 kmh WSW 4.0 mph6.4 kmh 30.49 in1032.5 mb 0.00 in0.0 mm 0.00 in0.0 mm 0.04 in1.0 mm
11:30 PM 16.7°F-8.5°C 9.8°F-12.3°C 74% 1.0 mph WSW1.6 kmh WSW 3.0 mph4.8 kmh 30.49 in1032.5 mb 0.00 in0.0 mm 0.00 in0.0 mm 0.04 in1.0 mm
11:45 PM 16.9°F-8.4°C 10.0°F-12.2°C 74% Calm Calm 2.0 mph3.2 kmh 30.48 in1032.2 mb 0.00 in0.0 mm 0.00 in0.0 mm 0.04 in1.0 mm